sensor_id;sensor_type;location;lat;lon;timestamp;temperature;humidity
71436;SHT31;59251;51.326;12.370;2023-12-20T00:01:38;5.74;98.75
71436;SHT31;59251;51.326;12.370;2023-12-20T00:04:04;5.72;98.92
71436;SHT31;59251;51.326;12.370;2023-12-20T00:06:30;5.65;98.32
71436;SHT31;59251;51.326;12.370;2023-12-20T00:08:57;5.64;98.64
71436;SHT31;59251;51.326;12.370;2023-12-20T00:11:24;5.55;98.20
71436;SHT31;59251;51.326;12.370;2023-12-20T00:13:51;5.70;98.86
71436;SHT31;59251;51.326;12.370;2023-12-20T00:16:19;5.70;98.87
71436;SHT31;59251;51.326;12.370;2023-12-20T00:18:46;5.67;98.98
71436;SHT31;59251;51.326;12.370;2023-12-20T00:21:13;5.61;98.70
71436;SHT31;59251;51.326;12.370;2023-12-20T00:23:39;5.58;98.54
71436;SHT31;59251;51.326;12.370;2023-12-20T00:26:06;5.52;98.58
71436;SHT31;59251;51.326;12.370;2023-12-20T00:28:33;5.44;98.30
71436;SHT31;59251;51.326;12.370;2023-12-20T00:30:59;5.67;98.95
71436;SHT31;59251;51.326;12.370;2023-12-20T00:33:27;5.52;98.71
71436;SHT31;59251;51.326;12.370;2023-12-20T00:35:54;5.54;98.98
71436;SHT31;59251;51.326;12.370;2023-12-20T00:38:21;5.62;98.77
71436;SHT31;59251;51.326;12.370;2023-12-20T00:40:48;5.57;98.90
71436;SHT31;59251;51.326;12.370;2023-12-20T00:43:15;5.51;98.73
71436;SHT31;59251;51.326;12.370;2023-12-20T00:45:41;5.51;98.50
71436;SHT31;59251;51.326;12.370;2023-12-20T00:48:08;5.52;98.74
71436;SHT31;59251;51.326;12.370;2023-12-20T00:50:36;5.39;98.59
71436;SHT31;59251;51.326;12.370;2023-12-20T00:53:03;5.46;98.27
71436;SHT31;59251;51.326;12.370;2023-12-20T00:55:31;5.50;98.74
71436;SHT31;59251;51.326;12.370;2023-12-20T00:57:57;5.50;98.43
71436;SHT31;59251;51.326;12.370;2023-12-20T01:00:24;5.52;98.86
71436;SHT31;59251;51.326;12.370;2023-12-20T01:02:51;5.54;98.80
71436;SHT31;59251;51.326;12.370;2023-12-20T01:05:17;5.52;98.94
71436;SHT31;59251;51.326;12.370;2023-12-20T01:07:45;5.52;98.97
71436;SHT31;59251;51.326;12.370;2023-12-20T01:10:12;5.50;98.74
71436;SHT31;59251;51.326;12.370;2023-12-20T01:12:39;5.48;98.91
71436;SHT31;59251;51.326;12.370;2023-12-20T01:15:06;5.51;98.91
71436;SHT31;59251;51.326;12.370;2023-12-20T01:17:32;5.44;98.33
71436;SHT31;59251;51.326;12.370;2023-12-20T01:19:59;5.43;98.81
71436;SHT31;59251;51.326;12.370;2023-12-20T01:22:26;5.51;98.73
71436;SHT31;59251;51.326;12.370;2023-12-20T01:24:54;5.46;98.74
71436;SHT31;59251;51.326;12.370;2023-12-20T01:27:21;5.44;98.63
71436;SHT31;59251;51.326;12.370;2023-12-20T01:29:47;5.46;98.79
71436;SHT31;59251;51.326;12.370;2023-12-20T01:32:14;5.47;98.77
71436;SHT31;59251;51.326;12.370;2023-12-20T01:34:41;5.52;98.84
71436;SHT31;59251;51.326;12.370;2023-12-20T01:37:07;5.50;98.77
71436;SHT31;59251;51.326;12.370;2023-12-20T01:39:34;8.03;93.80
71436;SHT31;59251;51.326;12.370;2023-12-20T01:42:02;6.77;93.00
71436;SHT31;59251;51.326;12.370;2023-12-20T01:44:29;6.71;93.62
71436;SHT31;59251;51.326;12.370;2023-12-20T01:46:56;6.67;93.79
71436;SHT31;59251;51.326;12.370;2023-12-20T01:49:23;6.48;94.47
71436;SHT31;59251;51.326;12.370;2023-12-20T01:51:50;6.30;94.78
71436;SHT31;59251;51.326;12.370;2023-12-20T01:54:17;6.27;94.56
71436;SHT31;59251;51.326;12.370;2023-12-20T01:56:45;6.37;95.35
71436;SHT31;59251;51.326;12.370;2023-12-20T01:59:14;6.32;95.08
71436;SHT31;59251;51.326;12.370;2023-12-20T02:01:41;6.32;95.43
71436;SHT31;59251;51.326;12.370;2023-12-20T02:04:07;6.23;95.50
71436;SHT31;59251;51.326;12.370;2023-12-20T02:06:34;6.22;96.06
71436;SHT31;59251;51.326;12.370;2023-12-20T02:09:01;6.18;96.91
71436;SHT31;59251;51.326;12.370;2023-12-20T02:11:27;6.09;96.72
71436;SHT31;59251;51.326;12.370;2023-12-20T02:13:55;6.13;96.81
71436;SHT31;59251;51.326;12.370;2023-12-20T02:16:23;6.16;96.53
71436;SHT31;59251;51.326;12.370;2023-12-20T02:18:49;6.15;96.37
71436;SHT31;59251;51.326;12.370;2023-12-20T02:21:16;6.18;96.31
71436;SHT31;59251;51.326;12.370;2023-12-20T02:23:44;6.20;96.09
71436;SHT31;59251;51.326;12.370;2023-12-20T02:26:11;6.20;95.79
71436;SHT31;59251;51.326;12.370;2023-12-20T02:28:39;6.27;95.56
71436;SHT31;59251;51.326;12.370;2023-12-20T02:31:06;6.20;95.29
71436;SHT31;59251;51.326;12.370;2023-12-20T02:33:32;6.26;95.49
71436;SHT31;59251;51.326;12.370;2023-12-20T02:35:59;6.19;95.55
71436;SHT31;59251;51.326;12.370;2023-12-20T02:38:26;6.27;95.74
71436;SHT31;59251;51.326;12.370;2023-12-20T02:40:54;6.25;95.57
71436;SHT31;59251;51.326;12.370;2023-12-20T02:43:20;6.15;95.47
71436;SHT31;59251;51.326;12.370;2023-12-20T02:45:47;6.18;95.73
71436;SHT31;59251;51.326;12.370;2023-12-20T02:48:13;6.27;95.73
71436;SHT31;59251;51.326;12.370;2023-12-20T02:50:40;6.27;95.55
71436;SHT31;59251;51.326;12.370;2023-12-20T02:53:07;6.20;95.48
71436;SHT31;59251;51.326;12.370;2023-12-20T02:55:34;6.18;95.76
71436;SHT31;59251;51.326;12.370;2023-12-20T02:58:02;6.15;95.85
71436;SHT31;59251;51.326;12.370;2023-12-20T03:00:28;6.22;95.44
71436;SHT31;59251;51.326;12.370;2023-12-20T03:02:55;6.23;95.71
71436;SHT31;59251;51.326;12.370;2023-12-20T03:05:22;6.22;95.73
71436;SHT31;59251;51.326;12.370;2023-12-20T03:07:48;6.15;95.77
71436;SHT31;59251;51.326;12.370;2023-12-20T03:10:15;6.09;95.34
71436;SHT31;59251;51.326;12.370;2023-12-20T03:12:42;6.02;95.73
71436;SHT31;59251;51.326;12.370;2023-12-20T03:15:10;6.12;95.91
71436;SHT31;59251;51.326;12.370;2023-12-20T03:17:37;6.13;96.03
71436;SHT31;59251;51.326;12.370;2023-12-20T03:20:04;6.15;96.02
71436;SHT31;59251;51.326;12.370;2023-12-20T03:22:31;6.09;96.00
71436;SHT31;59251;51.326;12.370;2023-12-20T03:24:58;6.13;96.04
71436;SHT31;59251;51.326;12.370;2023-12-20T03:27:24;6.06;96.07
71436;SHT31;59251;51.326;12.370;2023-12-20T03:29:51;5.98;96.24
71436;SHT31;59251;51.326;12.370;2023-12-20T03:32:19;6.12;96.42
71436;SHT31;59251;51.326;12.370;2023-12-20T03:34:45;6.03;96.47
71436;SHT31;59251;51.326;12.370;2023-12-20T03:37:13;6.02;96.62
71436;SHT31;59251;51.326;12.370;2023-12-20T03:39:40;6.08;96.39
71436;SHT31;59251;51.326;12.370;2023-12-20T03:42:07;6.03;96.50
71436;SHT31;59251;51.326;12.370;2023-12-20T03:44:33;6.05;96.50
71436;SHT31;59251;51.326;12.370;2023-12-20T03:47:00;6.03;96.65
71436;SHT31;59251;51.326;12.370;2023-12-20T03:49:28;6.13;96.45
71436;SHT31;59251;51.326;12.370;2023-12-20T03:51:55;6.02;96.38
71436;SHT31;59251;51.326;12.370;2023-12-20T03:54:21;6.03;96.67
71436;SHT31;59251;51.326;12.370;2023-12-20T03:56:48;6.08;96.73
71436;SHT31;59251;51.326;12.370;2023-12-20T03:59:15;6.03;96.78
71436;SHT31;59251;51.326;12.370;2023-12-20T04:01:43;6.71;95.93
71436;SHT31;59251;51.326;12.370;2023-12-20T04:04:09;6.63;94.89
71436;SHT31;59251;51.326;12.370;2023-12-20T04:06:37;6.60;95.03
71436;SHT31;59251;51.326;12.370;2023-12-20T04:09:04;6.61;94.94
71436;SHT31;59251;51.326;12.370;2023-12-20T04:11:31;6.56;95.37
71436;SHT31;59251;51.326;12.370;2023-12-20T04:13:57;6.41;95.52
71436;SHT31;59251;51.326;12.370;2023-12-20T04:16:24;6.44;95.69
71436;SHT31;59251;51.326;12.370;2023-12-20T04:18:51;6.33;95.85
71436;SHT31;59251;51.326;12.370;2023-12-20T04:21:17;6.33;95.99
71436;SHT31;59251;51.326;12.370;2023-12-20T04:23:45;6.30;96.52
71436;SHT31;59251;51.326;12.370;2023-12-20T04:26:12;6.20;96.65
71436;SHT31;59251;51.326;12.370;2023-12-20T04:28:39;6.30;96.60
71436;SHT31;59251;51.326;12.370;2023-12-20T04:31:05;6.46;95.41
71436;SHT31;59251;51.326;12.370;2023-12-20T04:33:32;6.36;96.19
71436;SHT31;59251;51.326;12.370;2023-12-20T04:35:59;6.27;96.44
71436;SHT31;59251;51.326;12.370;2023-12-20T04:38:26;6.27;96.52
71436;SHT31;59251;51.326;12.370;2023-12-20T04:40:54;6.29;96.36
71436;SHT31;59251;51.326;12.370;2023-12-20T04:43:21;6.29;96.51
71436;SHT31;59251;51.326;12.370;2023-12-20T04:45:47;6.27;96.66
71436;SHT31;59251;51.326;12.370;2023-12-20T04:48:14;6.32;96.56
71436;SHT31;59251;51.326;12.370;2023-12-20T04:50:41;6.36;96.48
71436;SHT31;59251;51.326;12.370;2023-12-20T04:53:07;6.29;96.58
71436;SHT31;59251;51.326;12.370;2023-12-20T04:55:34;6.25;96.31
71436;SHT31;59251;51.326;12.370;2023-12-20T04:58:02;6.30;96.44
71436;SHT31;59251;51.326;12.370;2023-12-20T05:00:29;6.40;96.11
71436;SHT31;59251;51.326;12.370;2023-12-20T05:02:55;6.43;95.95
71436;SHT31;59251;51.326;12.370;2023-12-20T05:05:22;6.44;95.89
71436;SHT31;59251;51.326;12.370;2023-12-20T05:07:49;6.50;96.02
71436;SHT31;59251;51.326;12.370;2023-12-20T05:10:16;6.46;95.99
71436;SHT31;59251;51.326;12.370;2023-12-20T05:12:42;6.47;95.58
71436;SHT31;59251;51.326;12.370;2023-12-20T05:15:10;6.41;95.52
71436;SHT31;59251;51.326;12.370;2023-12-20T05:17:37;6.47;95.72
71436;SHT31;59251;51.326;12.370;2023-12-20T05:20:05;6.44;95.79
71436;SHT31;59251;51.326;12.370;2023-12-20T05:22:32;6.44;95.72
71436;SHT31;59251;51.326;12.370;2023-12-20T05:24:58;6.50;95.57
71436;SHT31;59251;51.326;12.370;2023-12-20T05:27:25;6.50;95.57
71436;SHT31;59251;51.326;12.370;2023-12-20T05:29:52;6.47;95.54
71436;SHT31;59251;51.326;12.370;2023-12-20T05:32:20;6.46;95.53
71436;SHT31;59251;51.326;12.370;2023-12-20T05:34:46;6.51;95.52
71436;SHT31;59251;51.326;12.370;2023-12-20T05:37:13;6.54;95.48
71436;SHT31;59251;51.326;12.370;2023-12-20T05:39:39;6.63;95.39
71436;SHT31;59251;51.326;12.370;2023-12-20T05:42:06;6.54;95.35
71436;SHT31;59251;51.326;12.370;2023-12-20T05:44:33;6.60;95.27
71436;SHT31;59251;51.326;12.370;2023-12-20T05:47:00;6.61;95.34
71436;SHT31;59251;51.326;12.370;2023-12-20T05:49:28;6.65;95.21
71436;SHT31;59251;51.326;12.370;2023-12-20T05:51:54;6.70;95.22
71436;SHT31;59251;51.326;12.370;2023-12-20T05:54:21;6.67;95.24
71436;SHT31;59251;51.326;12.370;2023-12-20T05:56:48;6.68;95.13
71436;SHT31;59251;51.326;12.370;2023-12-20T05:59:16;6.70;95.13
71436;SHT31;59251;51.326;12.370;2023-12-20T06:01:43;6.75;94.94
71436;SHT31;59251;51.326;12.370;2023-12-20T06:04:09;6.73;94.92
71436;SHT31;59251;51.326;12.370;2023-12-20T06:06:41;6.65;94.92
71436;SHT31;59251;51.326;12.370;2023-12-20T06:09:08;6.71;94.63
71436;SHT31;59251;51.326;12.370;2023-12-20T06:11:35;6.67;94.72
71436;SHT31;59251;51.326;12.370;2023-12-20T06:14:01;6.60;94.73
71436;SHT31;59251;51.326;12.370;2023-12-20T06:16:28;6.63;94.55
71436;SHT31;59251;51.326;12.370;2023-12-20T06:18:55;6.60;94.59
71436;SHT31;59251;51.326;12.370;2023-12-20T06:21:21;6.57;94.55
71436;SHT31;59251;51.326;12.370;2023-12-20T06:23:49;6.58;94.32
71436;SHT31;59251;51.326;12.370;2023-12-20T06:26:16;6.46;94.14
71436;SHT31;59251;51.326;12.370;2023-12-20T06:28:43;6.20;94.64
71436;SHT31;59251;51.326;12.370;2023-12-20T06:31:09;6.13;94.75
71436;SHT31;59251;51.326;12.370;2023-12-20T06:33:36;6.12;94.77
71436;SHT31;59251;51.326;12.370;2023-12-20T06:36:03;5.98;94.84
71436;SHT31;59251;51.326;12.370;2023-12-20T06:38:30;5.87;95.06
71436;SHT31;59251;51.326;12.370;2023-12-20T06:40:58;5.78;95.24
71436;SHT31;59251;51.326;12.370;2023-12-20T06:43:25;5.78;95.14
71436;SHT31;59251;51.326;12.370;2023-12-20T06:45:52;5.72;95.31
71436;SHT31;59251;51.326;12.370;2023-12-20T06:48:18;5.72;95.39
71436;SHT31;59251;51.326;12.370;2023-12-20T06:50:46;5.79;95.20
71436;SHT31;59251;51.326;12.370;2023-12-20T06:53:12;5.87;95.08
71436;SHT31;59251;51.326;12.370;2023-12-20T06:55:39;5.85;94.82
71436;SHT31;59251;51.326;12.370;2023-12-20T06:58:07;5.88;94.76
71436;SHT31;59251;51.326;12.370;2023-12-20T07:00:34;5.89;94.65
71436;SHT31;59251;51.326;12.370;2023-12-20T07:03:01;5.91;94.77
71436;SHT31;59251;51.326;12.370;2023-12-20T07:05:27;5.74;94.67
71436;SHT31;59251;51.326;12.370;2023-12-20T07:07:54;5.75;94.63
71436;SHT31;59251;51.326;12.370;2023-12-20T07:10:21;5.70;94.67
71436;SHT31;59251;51.326;12.370;2023-12-20T07:12:47;5.61;94.97
71436;SHT31;59251;51.326;12.370;2023-12-20T07:15:16;5.60;94.75
71436;SHT31;59251;51.326;12.370;2023-12-20T07:17:42;5.64;94.31
71436;SHT31;59251;51.326;12.370;2023-12-20T07:20:10;5.79;93.82
71436;SHT31;59251;51.326;12.370;2023-12-20T07:22:37;5.72;93.29
71436;SHT31;59251;51.326;12.370;2023-12-20T07:25:05;5.72;92.33
71436;SHT31;59251;51.326;12.370;2023-12-20T07:27:32;5.78;91.64
71436;SHT31;59251;51.326;12.370;2023-12-20T07:29:58;5.85;91.28
71436;SHT31;59251;51.326;12.370;2023-12-20T07:32:27;5.98;90.69
71436;SHT31;59251;51.326;12.370;2023-12-20T07:34:53;6.01;90.41
71436;SHT31;59251;51.326;12.370;2023-12-20T07:37:20;6.05;89.93
71436;SHT31;59251;51.326;12.370;2023-12-20T07:39:47;6.15;89.99
71436;SHT31;59251;51.326;12.370;2023-12-20T07:42:14;6.10;89.93
71436;SHT31;59251;51.326;12.370;2023-12-20T07:44:41;6.08;90.07
71436;SHT31;59251;51.326;12.370;2023-12-20T07:47:08;6.09;90.07
71436;SHT31;59251;51.326;12.370;2023-12-20T07:49:36;6.01;90.15
71436;SHT31;59251;51.326;12.370;2023-12-20T07:52:03;6.03;90.01
71436;SHT31;59251;51.326;12.370;2023-12-20T07:54:29;6.02;89.68
71436;SHT31;59251;51.326;12.370;2023-12-20T07:56:57;6.15;89.67
71436;SHT31;59251;51.326;12.370;2023-12-20T07:59:23;6.15;89.34
71436;SHT31;59251;51.326;12.370;2023-12-20T08:01:50;6.09;89.06
71436;SHT31;59251;51.326;12.370;2023-12-20T08:04:17;6.18;88.88
71436;SHT31;59251;51.326;12.370;2023-12-20T08:06:45;6.12;88.80
71436;SHT31;59251;51.326;12.370;2023-12-20T08:09:11;6.19;88.78
71436;SHT31;59251;51.326;12.370;2023-12-20T08:11:38;6.26;88.37
71436;SHT31;59251;51.326;12.370;2023-12-20T08:14:05;6.19;88.92
71436;SHT31;59251;51.326;12.370;2023-12-20T08:16:32;6.19;88.85
71436;SHT31;59251;51.326;12.370;2023-12-20T08:18:58;6.10;89.14
71436;SHT31;59251;51.326;12.370;2023-12-20T08:21:25;6.23;88.81
71436;SHT31;59251;51.326;12.370;2023-12-20T08:23:53;6.20;88.74
71436;SHT31;59251;51.326;12.370;2023-12-20T08:26:20;6.23;89.39
71436;SHT31;59251;51.326;12.370;2023-12-20T08:28:48;6.23;89.10
71436;SHT31;59251;51.326;12.370;2023-12-20T08:31:15;6.23;89.12
71436;SHT31;59251;51.326;12.370;2023-12-20T08:33:43;6.44;88.27
71436;SHT31;59251;51.326;12.370;2023-12-20T08:36:10;6.48;88.43
71436;SHT31;59251;51.326;12.370;2023-12-20T08:38:36;6.61;88.03
71436;SHT31;59251;51.326;12.370;2023-12-20T08:41:05;6.60;87.75
71436;SHT31;59251;51.326;12.370;2023-12-20T08:43:31;6.98;86.72
71436;SHT31;59251;51.326;12.370;2023-12-20T08:45:58;7.19;85.70
71436;SHT31;59251;51.326;12.370;2023-12-20T08:48:25;7.02;86.47
71436;SHT31;59251;51.326;12.370;2023-12-20T08:50:52;6.84;86.75
71436;SHT31;59251;51.326;12.370;2023-12-20T08:53:18;6.75;86.89
71436;SHT31;59251;51.326;12.370;2023-12-20T08:55:46;6.67;87.13
71436;SHT31;59251;51.326;12.370;2023-12-20T08:58:14;6.71;86.52
71436;SHT31;59251;51.326;12.370;2023-12-20T09:00:41;6.75;86.43
71436;SHT31;59251;51.326;12.370;2023-12-20T09:03:07;6.56;86.79
71436;SHT31;59251;51.326;12.370;2023-12-20T09:05:34;6.60;87.03
71436;SHT31;59251;51.326;12.370;2023-12-20T09:08:01;6.63;86.96
71436;SHT31;59251;51.326;12.370;2023-12-20T09:10:27;6.80;86.74
71436;SHT31;59251;51.326;12.370;2023-12-20T09:12:54;6.74;86.78
71436;SHT31;59251;51.326;12.370;2023-12-20T09:15:24;6.81;85.97
71436;SHT31;59251;51.326;12.370;2023-12-20T09:17:51;6.94;85.62
71436;SHT31;59251;51.326;12.370;2023-12-20T09:20:18;6.96;85.76
71436;SHT31;59251;51.326;12.370;2023-12-20T09:22:45;6.87;85.44
71436;SHT31;59251;51.326;12.370;2023-12-20T09:25:12;6.98;84.92
71436;SHT31;59251;51.326;12.370;2023-12-20T09:27:40;7.11;84.81
71436;SHT31;59251;51.326;12.370;2023-12-20T09:30:07;6.96;84.37
71436;SHT31;59251;51.326;12.370;2023-12-20T09:32:35;7.08;84.50
71436;SHT31;59251;51.326;12.370;2023-12-20T09:35:02;6.98;84.88
71436;SHT31;59251;51.326;12.370;2023-12-20T09:37:30;6.91;84.95
71436;SHT31;59251;51.326;12.370;2023-12-20T09:39:57;7.02;84.65
71436;SHT31;59251;51.326;12.370;2023-12-20T09:42:29;7.16;84.49
71436;SHT31;59251;51.326;12.370;2023-12-20T09:45:02;7.59;83.03
71436;SHT31;59251;51.326;12.370;2023-12-20T09:47:29;7.50;82.54
71436;SHT31;59251;51.326;12.370;2023-12-20T09:49:57;7.43;82.62
71436;SHT31;59251;51.326;12.370;2023-12-20T09:52:24;7.32;82.14
71436;SHT31;59251;51.326;12.370;2023-12-20T09:54:52;7.36;82.77
71436;SHT31;59251;51.326;12.370;2023-12-20T09:57:20;7.37;82.80
71436;SHT31;59251;51.326;12.370;2023-12-20T09:59:47;7.50;82.48
71436;SHT31;59251;51.326;12.370;2023-12-20T10:02:14;7.60;82.31
71436;SHT31;59251;51.326;12.370;2023-12-20T10:04:46;7.52;81.97
71436;SHT31;59251;51.326;12.370;2023-12-20T10:07:15;7.59;82.08
71436;SHT31;59251;51.326;12.370;2023-12-20T10:09:42;7.49;82.02
71436;SHT31;59251;51.326;12.370;2023-12-20T10:12:10;7.47;81.72
71436;SHT31;59251;51.326;12.370;2023-12-20T10:14:38;7.81;81.53
71436;SHT31;59251;51.326;12.370;2023-12-20T10:17:05;7.97;81.14
71436;SHT31;59251;51.326;12.370;2023-12-20T10:19:33;8.05;80.64
71436;SHT31;59251;51.326;12.370;2023-12-20T10:22:00;7.97;80.58
71436;SHT31;59251;51.326;12.370;2023-12-20T10:24:29;7.88;80.32
71436;SHT31;59251;51.326;12.370;2023-12-20T10:27:03;7.91;80.44
71436;SHT31;59251;51.326;12.370;2023-12-20T10:29:33;7.99;80.56
71436;SHT31;59251;51.326;12.370;2023-12-20T10:32:21;7.99;80.67
71436;SHT31;59251;51.326;12.370;2023-12-20T10:34:48;7.94;80.10
71436;SHT31;59251;51.326;12.370;2023-12-20T10:37:15;8.16;79.36
71436;SHT31;59251;51.326;12.370;2023-12-20T10:39:43;8.18;78.93
71436;SHT31;59251;51.326;12.370;2023-12-20T10:42:11;8.09;78.98
71436;SHT31;59251;51.326;12.370;2023-12-20T10:44:38;8.09;79.05
71436;SHT31;59251;51.326;12.370;2023-12-20T10:47:06;8.03;79.31
71436;SHT31;59251;51.326;12.370;2023-12-20T10:49:36;8.02;79.19
71436;SHT31;59251;51.326;12.370;2023-12-20T10:52:04;8.03;79.75
71436;SHT31;59251;51.326;12.370;2023-12-20T10:54:32;8.08;79.45
71436;SHT31;59251;51.326;12.370;2023-12-20T10:57:05;8.16;79.26
71436;SHT31;59251;51.326;12.370;2023-12-20T10:59:33;8.24;79.06
71436;SHT31;59251;51.326;12.370;2023-12-20T11:02:02;8.13;79.15
71436;SHT31;59251;51.326;12.370;2023-12-20T11:04:36;8.05;79.09
71436;SHT31;59251;51.326;12.370;2023-12-20T11:07:10;8.21;78.46
71436;SHT31;59251;51.326;12.370;2023-12-20T11:09:43;8.26;78.31
71436;SHT31;59251;51.326;12.370;2023-12-20T11:12:18;8.49;77.95
71436;SHT31;59251;51.326;12.370;2023-12-20T11:14:50;8.35;77.26
71436;SHT31;59251;51.326;12.370;2023-12-20T11:17:17;8.42;77.58
71436;SHT31;59251;51.326;12.370;2023-12-20T11:20:08;8.40;77.79
71436;SHT31;59251;51.326;12.370;2023-12-20T11:22:37;8.60;77.19
71436;SHT31;59251;51.326;12.370;2023-12-20T11:25:08;8.54;77.14
71436;SHT31;59251;51.326;12.370;2023-12-20T11:27:36;8.49;77.29
71436;SHT31;59251;51.326;12.370;2023-12-20T11:30:04;8.42;77.72
71436;SHT31;59251;51.326;12.370;2023-12-20T11:32:34;8.59;77.48
71436;SHT31;59251;51.326;12.370;2023-12-20T11:35:16;8.49;77.76
71436;SHT31;59251;51.326;12.370;2023-12-20T11:37:43;8.26;77.77
71436;SHT31;59251;51.326;12.370;2023-12-20T11:40:14;8.28;78.62
71436;SHT31;59251;51.326;12.370;2023-12-20T11:42:43;8.22;78.42
71436;SHT31;59251;51.326;12.370;2023-12-20T11:45:11;8.05;78.89
71436;SHT31;59251;51.326;12.370;2023-12-20T11:47:40;7.90;78.90
71436;SHT31;59251;51.326;12.370;2023-12-20T11:50:07;7.95;78.96
71436;SHT31;59251;51.326;12.370;2023-12-20T11:52:35;8.06;78.47
71436;SHT31;59251;51.326;12.370;2023-12-20T11:55:01;7.99;78.69
71436;SHT31;59251;51.326;12.370;2023-12-20T11:57:29;8.03;78.37
71436;SHT31;59251;51.326;12.370;2023-12-20T11:59:57;8.18;78.34
71436;SHT31;59251;51.326;12.370;2023-12-20T12:02:24;8.11;78.35
71436;SHT31;59251;51.326;12.370;2023-12-20T12:04:50;8.13;78.18
71436;SHT31;59251;51.326;12.370;2023-12-20T12:07:17;8.13;77.97
71436;SHT31;59251;51.326;12.370;2023-12-20T12:09:44;8.19;78.02
71436;SHT31;59251;51.326;12.370;2023-12-20T12:12:12;10.28;72.51
71436;SHT31;59251;51.326;12.370;2023-12-20T12:14:39;10.08;71.98
71436;SHT31;59251;51.326;12.370;2023-12-20T12:17:11;10.41;71.77
71436;SHT31;59251;51.326;12.370;2023-12-20T12:19:38;10.49;71.42
71436;SHT31;59251;51.326;12.370;2023-12-20T12:22:05;10.72;71.17
71436;SHT31;59251;51.326;12.370;2023-12-20T12:24:34;9.84;72.10
71436;SHT31;59251;51.326;12.370;2023-12-20T12:27:00;10.04;72.29
71436;SHT31;59251;51.326;12.370;2023-12-20T12:29:27;10.21;71.81
71436;SHT31;59251;51.326;12.370;2023-12-20T12:31:54;10.56;71.16
71436;SHT31;59251;51.326;12.370;2023-12-20T12:34:23;10.61;71.12
71436;SHT31;59251;51.326;12.370;2023-12-20T12:36:52;10.28;71.82
71436;SHT31;59251;51.326;12.370;2023-12-20T12:39:19;10.66;71.14
71436;SHT31;59251;51.326;12.370;2023-12-20T12:41:46;10.52;71.80
71436;SHT31;59251;51.326;12.370;2023-12-20T12:44:13;10.35;71.87
71436;SHT31;59251;51.326;12.370;2023-12-20T12:46:40;10.69;71.75
71436;SHT31;59251;51.326;12.370;2023-12-20T12:49:06;10.37;71.77
71436;SHT31;59251;51.326;12.370;2023-12-20T12:51:34;10.70;71.35
71436;SHT31;59251;51.326;12.370;2023-12-20T12:54:01;10.63;71.33
71436;SHT31;59251;51.326;12.370;2023-12-20T12:56:29;10.83;70.06
71436;SHT31;59251;51.326;12.370;2023-12-20T12:58:55;11.50;68.96
71436;SHT31;59251;51.326;12.370;2023-12-20T13:01:22;11.57;69.23
71436;SHT31;59251;51.326;12.370;2023-12-20T13:03:49;11.18;69.99
71436;SHT31;59251;51.326;12.370;2023-12-20T13:06:16;11.03;70.34
71436;SHT31;59251;51.326;12.370;2023-12-20T13:08:44;10.92;70.49
71436;SHT31;59251;51.326;12.370;2023-12-20T13:11:11;11.00;70.83
71436;SHT31;59251;51.326;12.370;2023-12-20T13:13:38;10.82;70.81
71436;SHT31;59251;51.326;12.370;2023-12-20T13:16:05;10.53;71.66
71436;SHT31;59251;51.326;12.370;2023-12-20T13:18:32;10.86;71.15
71436;SHT31;59251;51.326;12.370;2023-12-20T13:20:59;10.55;71.27
71436;SHT31;59251;51.326;12.370;2023-12-20T13:23:25;10.79;70.91
71436;SHT31;59251;51.326;12.370;2023-12-20T13:25:53;10.52;71.43
71436;SHT31;59251;51.326;12.370;2023-12-20T13:28:20;10.35;71.98
71436;SHT31;59251;51.326;12.370;2023-12-20T13:30:47;10.35;72.31
71436;SHT31;59251;51.326;12.370;2023-12-20T13:33:13;10.08;72.45
71436;SHT31;59251;51.326;12.370;2023-12-20T13:35:40;9.93;72.81
71436;SHT31;59251;51.326;12.370;2023-12-20T13:38:07;10.17;72.69
71436;SHT31;59251;51.326;12.370;2023-12-20T13:40:34;9.95;72.09
71436;SHT31;59251;51.326;12.370;2023-12-20T13:43:02;10.11;72.41
71436;SHT31;59251;51.326;12.370;2023-12-20T13:45:29;10.53;71.77
71436;SHT31;59251;51.326;12.370;2023-12-20T13:47:56;10.20;72.46
71436;SHT31;59251;51.326;12.370;2023-12-20T13:50:24;10.17;72.13
71436;SHT31;59251;51.326;12.370;2023-12-20T13:52:51;9.94;73.13
71436;SHT31;59251;51.326;12.370;2023-12-20T13:55:18;9.62;73.51
71436;SHT31;59251;51.326;12.370;2023-12-20T13:57:47;9.73;73.68
71436;SHT31;59251;51.326;12.370;2023-12-20T14:00:16;9.73;73.73
71436;SHT31;59251;51.326;12.370;2023-12-20T14:02:43;9.46;73.96
71436;SHT31;59251;51.326;12.370;2023-12-20T14:05:10;9.70;74.00
71436;SHT31;59251;51.326;12.370;2023-12-20T14:07:36;9.86;73.31
71436;SHT31;59251;51.326;12.370;2023-12-20T14:10:04;9.80;73.45
71436;SHT31;59251;51.326;12.370;2023-12-20T14:12:31;9.63;73.70
71436;SHT31;59251;51.326;12.370;2023-12-20T14:15:01;9.86;73.54
71436;SHT31;59251;51.326;12.370;2023-12-20T14:17:29;9.74;73.66
71436;SHT31;59251;51.326;12.370;2023-12-20T14:19:57;9.49;73.91
71436;SHT31;59251;51.326;12.370;2023-12-20T14:22:23;9.63;73.50
71436;SHT31;59251;51.326;12.370;2023-12-20T14:24:50;9.67;74.03
71436;SHT31;59251;51.326;12.370;2023-12-20T14:27:17;9.62;74.13
71436;SHT31;59251;51.326;12.370;2023-12-20T14:29:46;9.84;73.68
71436;SHT31;59251;51.326;12.370;2023-12-20T14:32:13;9.67;74.31
71436;SHT31;59251;51.326;12.370;2023-12-20T14:34:42;9.86;73.70
71436;SHT31;59251;51.326;12.370;2023-12-20T14:37:08;9.66;74.05
71436;SHT31;59251;51.326;12.370;2023-12-20T14:39:35;9.82;73.82
71436;SHT31;59251;51.326;12.370;2023-12-20T14:42:05;9.79;74.15
71436;SHT31;59251;51.326;12.370;2023-12-20T14:44:32;9.70;74.17
71436;SHT31;59251;51.326;12.370;2023-12-20T14:46:58;9.66;74.38
71436;SHT31;59251;51.326;12.370;2023-12-20T14:49:27;9.65;74.05
71436;SHT31;59251;51.326;12.370;2023-12-20T14:51:55;9.94;73.99
71436;SHT31;59251;51.326;12.370;2023-12-20T14:54:22;9.63;74.17
71436;SHT31;59251;51.326;12.370;2023-12-20T14:56:49;9.98;73.70
71436;SHT31;59251;51.326;12.370;2023-12-20T14:59:15;9.70;73.99
71436;SHT31;59251;51.326;12.370;2023-12-20T15:01:43;9.65;74.57
71436;SHT31;59251;51.326;12.370;2023-12-20T15:04:10;9.55;74.34
71436;SHT31;59251;51.326;12.370;2023-12-20T15:06:37;9.59;73.97
71436;SHT31;59251;51.326;12.370;2023-12-20T15:09:05;9.84;74.33
71436;SHT31;59251;51.326;12.370;2023-12-20T15:11:33;9.52;74.36
71436;SHT31;59251;51.326;12.370;2023-12-20T15:14:01;9.70;74.31
71436;SHT31;59251;51.326;12.370;2023-12-20T15:16:28;9.98;74.10
71436;SHT31;59251;51.326;12.370;2023-12-20T15:18:54;9.57;74.87
71436;SHT31;59251;51.326;12.370;2023-12-20T15:21:22;9.84;74.48
71436;SHT31;59251;51.326;12.370;2023-12-20T15:23:56;9.52;75.15
71436;SHT31;59251;51.326;12.370;2023-12-20T15:26:33;9.65;74.97
71436;SHT31;59251;51.326;12.370;2023-12-20T15:29:00;9.59;75.11
71436;SHT31;59251;51.326;12.370;2023-12-20T15:31:27;9.77;74.47